Current Conditions

Updated: 18-Dec-2014 8:33pm  
Summary / Temperature Wind Rain






Feels like: 45°F

1-hour difference
1.2°F 1.2°F colder than last hour.

24-hour difference
0.5°F0.5°F warmer than yesterday at this time.

  Today Yesterday
High: 63.5°F
3:12pm
55.9°F
3:39pm
Low: 39.6°F
6:59am
43.7°F
9:29pm
 Calm NNW
0.0
Gust:  0.0 mph
0 Beaufort - Calm

Today: 5.0 - 1:56pm
Month: 15.0 mph - Dec 12
Rain Today: 0.00 in
Current Rate (/hr): 0.00 in
Max Rate (/hr):
Rain Yesterday: 0.13 in
Storm Rain: 0.00 in
This Month: 1.85 in
Season Total: 2.94 in
Last Rain Event: Today
Humidity / Barometer Sun / Moon
Humidity: 94 Increased 2.0% in the last hour.
Dew Point: 43.7°F Decreased 0.6°F in the last hour.
Barometer: 30.219 inHg  
Baro Trend: Steady
Sunrise: 7:02am
Sunset: 4:44pm
Moonrise: 4:21am
Moonset: 3:02pm
Sky Conditions UV Index
Sky: Clear
Visibility: 10 miles
Clouds: None
Current: 0.0  None 
:  None 
:  None 
Air Quality Fire Danger
PM 2.5 Moderate
Current: 0  Low 

Local Alerts Local Forecast
Local NWS Alerts
Tonight

Partly
Cloudy
Low 41
Fri

Chance of
Precip
High 60
Fri night

Chance of
Precip
Low 43
Sat

Chance of
Precip
High 60
Sat night

Partly
Cloudy
Low 43
Sun

Partly
Sunny
High 55
Sun night

Partly
Cloudy
Low 42

Local Radar Local Satellite Neighborhood Cam Sky Cam
Local Radar Local Satellite Neighborhood Cam Sky Cam


Nearby METAR Reports

KPTV - Porterville, California, USA
Distance from station: SSW 4mi, 7km
Updated: Thu, 18-Dec-2014 8:15pm PST
Clear
Clear
 Wind from ESE
Wind: ESE 5 mph , 7 km/h
Temperature: 46°F , 8°C
Wind Chill: 44°F , 7°C
Dew Point: 41°F , 5°C
Humidity: 82%
Barometer: 30.21 inHg , 1023 hPa
Clouds: Clear
Visibility: 10 miles , 16 km
2014/12/19 04:15 KPTV 190415Z AUTO 11004KT 10SM CLR 08/05 A3021 RMK AO1
KVIS - Visalia, California, USA
Distance from station: NW 27mi, 43km
Updated: Thu, 18-Dec-2014 8:15pm PST
Clear
Clear
 Wind from calm
Wind: Calm
Temperature: 48°F , 9°C
Dew Point: 39°F , 4°C
Humidity: 71%
Barometer: 30.21 inHg , 1023 hPa
Clouds: Clear
Visibility: 10 miles , 16 km
2014/12/19 04:15 KVIS 190415Z AUTO 00000KT 10SM CLR 09/04 A3021 RMK AO1

Metar display script from Saratoga-Weather.org



Visitor Map

Locations of visitors to this page